Time;durP1;ratioP1;P1;durP2;ratioP2;P2;SDS_P1;SDS_P2;PMS_P1;PMS_P2;Temp;Humidity;BMP_temperature;BMP_pressure;BME280_temperature;BME280_humidity;BME280_pressure;Samples;Min_cycle;Max_cycle;Signal;HPM_P1;HPM_P2
2022/01/24 00:02:48;;;;;;;39.30;21.10;;;;;;;;;;10253053;28;20462;-63
2022/01/24 00:07:48;;;;;;;21.42;13.88;;;;;;;;;;10237630;28;20099;-61
2022/01/24 00:12:56;;;;;;;23.17;14.88;;;;;;;;;;10238636;28;20084;-60
2022/01/24 00:18:05;;;;;;;28.77;16.80;;;;;;;;;;10249479;28;20064;-60
2022/01/24 00:28:20;;;;;;;27.27;15.60;;;;;;;;;;10245280;28;20424;-62
2022/01/24 00:33:19;;;;;;;22.48;14.57;;;;;;;;;;10236263;28;20080;-59
2022/01/24 00:38:19;;;;;;;30.63;14.82;;;;;;;;;;10235349;28;20057;-59
2022/01/24 00:43:26;;;;;;;36.63;18.25;;;;;;;;;;10236431;28;20068;-60
2022/01/24 00:48:35;;;;;;;20.83;14.48;;;;;;;;;;10235836;28;20485;-59
2022/01/24 00:53:50;;;;;;;32.53;18.63;;;;;;;;;;10241391;28;20535;-60
2022/01/24 00:58:48;;;;;;;35.70;18.33;;;;;;;;;;10247251;28;20076;-60
2022/01/24 01:03:47;;;;;;;24.85;15.90;;;;;;;;;;10250564;28;20076;-61
2022/01/24 01:19:19;;;;;;;33.58;19.80;;;;;;;;;;10271292;28;20087;-60
2022/01/24 01:24:20;;;;;;;24.83;15.10;;;;;;;;;;10249209;28;20087;-60
2022/01/24 01:29:22;;;;;;;22.52;14.55;;;;;;;;;;10249936;28;20088;-60
2022/01/24 01:34:28;;;;;;;23.77;16.30;;;;;;;;;;10248728;28;20076;-60
2022/01/24 01:39:44;;;;;;;31.42;18.30;;;;;;;;;;10268438;28;20115;-60
2022/01/24 01:55:26;;;;;;;21.45;13.57;;;;;;;;;;10233670;28;20073;-60
2022/01/24 02:00:25;;;;;;;18.35;12.65;;;;;;;;;;10233671;28;20069;-60
2022/01/24 02:05:23;;;;;;;23.35;14.25;;;;;;;;;;10249428;28;20072;-60
2022/01/24 02:10:24;;;;;;;51.83;29.55;;;;;;;;;;10233395;28;20493;-61
2022/01/24 02:15:27;;;;;;;25.10;13.15;;;;;;;;;;10233626;28;20085;-60
2022/01/24 02:20:39;;;;;;;29.75;15.27;;;;;;;;;;10246665;28;20072;-60
2022/01/24 02:25:39;;;;;;;25.48;15.05;;;;;;;;;;10232905;28;20084;-59
2022/01/24 02:30:55;;;;;;;38.45;19.20;;;;;;;;;;10245346;28;20088;-60
2022/01/24 02:35:54;;;;;;;48.80;24.90;;;;;;;;;;10272376;28;20073;-60
2022/01/24 02:51:45;;;;;;;39.05;17.23;;;;;;;;;;10255555;28;20081;-60
2022/01/24 02:56:45;;;;;;;22.40;13.68;;;;;;;;;;10245982;28;20091;-59
2022/01/24 03:01:44;;;;;;;26.92;13.05;;;;;;;;;;10252787;28;20533;-60
2022/01/24 03:06:42;;;;;;;27.88;13.68;;;;;;;;;;10253105;28;20080;-60
2022/01/24 03:11:59;;;;;;;26.98;16.08;;;;;;;;;;10253380;28;20069;-62
2022/01/24 03:17:00;;;;;;;22.35;13.05;;;;;;;;;;10255106;28;20085;-61
2022/01/24 03:21:58;;;;;;;17.75;10.65;;;;;;;;;;10254940;28;20065;-60
2022/01/24 03:26:56;;;;;;;21.45;13.27;;;;;;;;;;10254640;28;20076;-60
2022/01/24 03:31:55;;;;;;;41.20;20.38;;;;;;;;;;10254003;28;20068;-60
2022/01/24 03:36:55;;;;;;;25.25;13.65;;;;;;;;;;10253276;28;20497;-61
2022/01/24 03:41:53;;;;;;;19.45;11.98;;;;;;;;;;10252016;28;20088;-61
2022/01/24 03:47:12;;;;;;;14.80;10.93;;;;;;;;;;10251017;28;20077;-61
2022/01/24 03:52:12;;;;;;;19.45;10.73;;;;;;;;;;10253232;28;20050;-60
2022/01/24 03:57:11;;;;;;;17.23;11.48;;;;;;;;;;10249820;28;20088;-60
2022/01/24 04:02:10;;;;;;;17.77;13.18;;;;;;;;;;10237199;28;20515;-60
2022/01/24 04:07:08;;;;;;;16.65;10.77;;;;;;;;;;10236163;28;20072;-60
2022/01/24 04:12:09;;;;;;;18.52;11.93;;;;;;;;;;10235072;28;20082;-60
2022/01/24 04:17:21;;;;;;;15.88;10.60;;;;;;;;;;10253812;28;20092;-60
2022/01/24 04:22:22;;;;;;;25.10;14.85;;;;;;;;;;10250256;28;20073;-60
2022/01/24 04:27:22;;;;;;;18.42;11.75;;;;;;;;;;10249475;28;20460;-60
2022/01/24 04:32:21;;;;;;;26.42;15.43;;;;;;;;;;10249528;28;20087;-60
2022/01/24 04:37:19;;;;;;;36.85;16.60;;;;;;;;;;10253575;28;20081;-60
2022/01/24 04:42:26;;;;;;;52.75;19.48;;;;;;;;;;10268801;28;20072;-60
2022/01/24 04:47:36;;;;;;;38.20;16.75;;;;;;;;;;10250828;28;20116;-60
2022/01/24 04:52:41;;;;;;;28.05;12.85;;;;;;;;;;10264319;28;20072;-60
2022/01/24 04:57:40;;;;;;;49.63;28.15;;;;;;;;;;10247592;28;20095;-60
2022/01/24 05:02:39;;;;;;;28.15;16.42;;;;;;;;;;10266745;28;20044;-61
2022/01/24 05:07:38;;;;;;;50.05;19.45;;;;;;;;;;10259938;28;20073;-61
2022/01/24 05:28:21;;;;;;;51.65;23.33;;;;;;;;;;10247941;28;20087;-61
2022/01/24 05:33:21;;;;;;;50.50;23.50;;;;;;;;;;10250574;28;20069;-61
2022/01/24 05:38:21;;;;;;;35.88;16.13;;;;;;;;;;10247257;28;20088;-60
2022/01/24 05:43:20;;;;;;;37.03;17.02;;;;;;;;;;10268419;28;20076;-60
2022/01/24 05:48:18;;;;;;;42.67;17.45;;;;;;;;;;10255743;28;20431;-62
2022/01/24 05:53:18;;;;;;;27.45;16.55;;;;;;;;;;10245572;28;20506;-61
2022/01/24 05:58:16;;;;;;;30.45;15.30;;;;;;;;;;10262477;28;20053;-62
2022/01/24 06:03:14;;;;;;;20.92;12.35;;;;;;;;;;10269482;28;20073;-61
2022/01/24 06:08:13;;;;;;;40.28;21.92;;;;;;;;;;10271707;28;20096;-62
2022/01/24 06:13:15;;;;;;;87.25;38.08;;;;;;;;;;10271687;28;20064;-60
2022/01/24 06:18:13;;;;;;;47.05;25.05;;;;;;;;;;10232951;28;20073;-62
2022/01/24 06:23:14;;;;;;;44.83;23.05;;;;;;;;;;10265044;28;20072;-62
2022/01/24 06:28:13;;;;;;;22.67;14.55;;;;;;;;;;10258785;28;20060;-61
2022/01/24 06:33:12;;;;;;;26.60;15.77;;;;;;;;;;10267956;28;20076;-61
2022/01/24 06:38:10;;;;;;;21.63;15.02;;;;;;;;;;10260391;28;20072;-61
2022/01/24 06:43:08;;;;;;;24.95;15.88;;;;;;;;;;10266769;28;20091;-62
2022/01/24 06:48:08;;;;;;;36.63;23.20;;;;;;;;;;10272868;28;20080;-60
2022/01/24 06:53:06;;;;;;;28.55;17.00;;;;;;;;;;10276474;28;20069;-61
2022/01/24 06:58:05;;;;;;;28.55;16.25;;;;;;;;;;10270982;28;20076;-61
2022/01/24 07:03:03;;;;;;;27.52;16.77;;;;;;;;;;10274185;28;20065;-61
2022/01/24 07:08:03;;;;;;;24.58;15.45;;;;;;;;;;10269873;28;20072;-62
2022/01/24 07:13:01;;;;;;;90.18;38.53;;;;;;;;;;10269409;28;20062;-61
2022/01/24 07:18:16;;;;;;;30.25;20.45;;;;;;;;;;10270175;28;20108;-62
2022/01/24 07:23:15;;;;;;;24.02;16.63;;;;;;;;;;10254741;28;20381;-62
2022/01/24 07:28:14;;;;;;;25.95;18.58;;;;;;;;;;10247815;28;20663;-62
2022/01/24 07:33:14;;;;;;;52.90;31.48;;;;;;;;;;10266461;28;20458;-61
2022/01/24 07:38:12;;;;;;;27.20;19.73;;;;;;;;;;10240044;28;20107;-61
2022/01/24 07:43:12;;;;;;;31.27;19.50;;;;;;;;;;10268579;28;20105;-62
2022/01/24 07:48:11;;;;;;;43.47;26.48;;;;;;;;;;10269436;28;20459;-62
2022/01/24 07:53:12;;;;;;;48.20;27.85;;;;;;;;;;10271722;28;20423;-61
2022/01/24 07:58:29;;;;;;;53.13;29.23;;;;;;;;;;10269990;28;20072;-62
2022/01/24 08:03:27;;;;;;;119.82;64.45;;;;;;;;;;10270974;28;20077;-62
2022/01/24 08:08:26;;;;;;;60.97;35.40;;;;;;;;;;10270828;28;20068;-62
2022/01/24 08:13:24;;;;;;;43.20;28.65;;;;;;;;;;10284136;28;20083;-61
2022/01/24 08:18:24;;;;;;;34.78;26.30;;;;;;;;;;10265561;28;20087;-63
2022/01/24 08:23:23;;;;;;;74.72;36.10;;;;;;;;;;10272409;28;20426;-63
2022/01/24 08:28:25;;;;;;;62.28;33.53;;;;;;;;;;10269489;28;20069;-62
2022/01/24 08:33:25;;;;;;;85.80;37.50;;;;;;;;;;10267471;28;20063;-62
2022/01/24 08:38:23;;;;;;;61.83;28.83;;;;;;;;;;10265387;28;20078;-62
2022/01/24 08:43:37;;;;;;;40.38;26.48;;;;;;;;;;10272337;28;20065;-62
2022/01/24 08:48:37;;;;;;;54.38;28.70;;;;;;;;;;10267822;28;20068;-62
2022/01/24 08:53:35;;;;;;;28.20;17.73;;;;;;;;;;10264147;28;20076;-62
2022/01/24 08:58:35;;;;;;;22.02;15.70;;;;;;;;;;10266455;28;20069;-63
2022/01/24 09:03:39;;;;;;;21.70;14.45;;;;;;;;;;10263047;28;20079;-62
2022/01/24 09:08:39;;;;;;;24.30;16.50;;;;;;;;;;10271887;28;20072;-62
2022/01/24 09:13:37;;;;;;;22.65;14.32;;;;;;;;;;10271047;28;20080;-63
2022/01/24 09:18:35;;;;;;;22.33;12.93;;;;;;;;;;10266724;28;20069;-64
2022/01/24 09:23:34;;;;;;;16.88;11.15;;;;;;;;;;10265692;28;20486;-63
2022/01/24 09:28:33;;;;;;;15.48;10.55;;;;;;;;;;10267198;28;20064;-61
2022/01/24 09:33:32;;;;;;;33.90;21.70;;;;;;;;;;10269593;28;20064;-62
2022/01/24 09:38:32;;;;;;;34.58;23.55;;;;;;;;;;10271231;28;20299;-62
2022/01/24 09:43:31;;;;;;;32.83;20.13;;;;;;;;;;10268041;28;20637;-63
2022/01/24 09:48:30;;;;;;;30.98;18.80;;;;;;;;;;10268416;28;20056;-63
2022/01/24 09:53:29;;;;;;;56.92;31.90;;;;;;;;;;10264649;28;20076;-63
2022/01/24 09:58:27;;;;;;;56.22;30.75;;;;;;;;;;10262316;28;20513;-63
2022/01/24 10:03:26;;;;;;;100.05;55.22;;;;;;;;;;10270227;28;20075;-64
2022/01/24 10:08:36;;;;;;;34.20;20.70;;;;;;;;;;10269871;28;20064;-63
2022/01/24 10:18:51;;;;;;;41.42;22.42;;;;;;;;;;10272531;28;20119;-63
2022/01/24 10:23:51;;;;;;;34.92;21.80;;;;;;;;;;10271572;28;20065;-63
2022/01/24 10:28:50;;;;;;;35.90;20.58;;;;;;;;;;10274564;28;20076;-63
2022/01/24 10:33:53;;;;;;;25.95;16.80;;;;;;;;;;10277168;28;20081;-63
2022/01/24 10:39:09;;;;;;;17.17;11.95;;;;;;;;;;10269727;28;20073;-62
2022/01/24 10:44:09;;;;;;;23.73;14.27;;;;;;;;;;10273067;28;20076;-63
2022/01/24 10:49:32;;;;;;;25.08;17.35;;;;;;;;;;10269991;28;20073;-61
2022/01/24 10:54:32;;;;;;;28.40;17.33;;;;;;;;;;10269636;28;20064;-61
2022/01/24 10:59:31;;;;;;;23.50;12.88;;;;;;;;;;10271872;28;20073;-61
2022/01/24 11:04:29;;;;;;;31.67;14.13;;;;;;;;;;10272939;28;20069;-61
2022/01/24 11:09:29;;;;;;;27.38;17.10;;;;;;;;;;10270714;28;20076;-62
2022/01/24 11:14:31;;;;;;;49.05;29.58;;;;;;;;;;10272404;28;20064;-63
2022/01/24 11:19:33;;;;;;;18.67;12.48;;;;;;;;;;10270401;28;20474;-62
2022/01/24 11:24:39;;;;;;;19.15;12.18;;;;;;;;;;10271010;28;20065;-63
2022/01/24 11:30:00;;;;;;;21.50;14.82;;;;;;;;;;10269908;28;20083;-62
2022/01/24 11:34:59;;;;;;;30.33;17.27;;;;;;;;;;10268506;28;20049;-62
2022/01/24 11:39:57;;;;;;;41.60;23.35;;;;;;;;;;10268856;28;20058;-63
2022/01/24 11:44:58;;;;;;;43.65;21.63;;;;;;;;;;10266268;28;20069;-63
2022/01/24 11:49:59;;;;;;;24.02;13.30;;;;;;;;;;10268509;28;20073;-62
2022/01/24 11:55:14;;;;;;;20.10;13.30;;;;;;;;;;10269681;28;20061;-62
2022/01/24 12:00:16;;;;;;;18.73;12.53;;;;;;;;;;10274376;28;20065;-62
2022/01/24 12:05:20;;;;;;;21.48;14.15;;;;;;;;;;10270648;28;20080;-63
2022/01/24 12:10:40;;;;;;;35.50;19.17;;;;;;;;;;10272154;28;20061;-63
2022/01/24 12:15:52;;;;;;;21.30;13.48;;;;;;;;;;10273282;28;20507;-63
2022/01/24 12:20:53;;;;;;;29.85;20.92;;;;;;;;;;10271410;28;20076;-63
2022/01/24 12:25:54;;;;;;;42.78;23.77;;;;;;;;;;10271025;28;20068;-63
2022/01/24 12:30:59;;;;;;;52.20;27.27;;;;;;;;;;10270897;28;20061;-62
2022/01/24 12:35:58;;;;;;;31.88;18.30;;;;;;;;;;10272003;28;20467;-61
2022/01/24 12:41:15;;;;;;;39.00;21.73;;;;;;;;;;10274038;28;20068;-62
2022/01/24 12:46:20;;;;;;;72.53;37.75;;;;;;;;;;10273176;28;20468;-62
2022/01/24 12:51:21;;;;;;;23.88;15.65;;;;;;;;;;10270273;28;20080;-62
2022/01/24 12:56:24;;;;;;;39.70;23.27;;;;;;;;;;10272609;28;20065;-62
2022/01/24 13:01:24;;;;;;;40.80;20.30;;;;;;;;;;10271986;28;20061;-63
2022/01/24 13:06:25;;;;;;;26.85;14.73;;;;;;;;;;10272471;28;20048;-62
2022/01/24 13:11:24;;;;;;;83.50;43.53;;;;;;;;;;10270493;28;20065;-63
2022/01/24 13:21:39;;;;;;;43.85;24.27;;;;;;;;;;10266078;28;20067;-62
2022/01/24 13:26:38;;;;;;;29.02;17.77;;;;;;;;;;10266623;28;20062;-62
2022/01/24 13:31:36;;;;;;;42.28;28.02;;;;;;;;;;10268544;28;20064;-63
2022/01/24 13:36:35;;;;;;;36.30;23.60;;;;;;;;;;10272457;28;20080;-62
2022/01/24 13:41:34;;;;;;;26.55;13.18;;;;;;;;;;10259894;28;20460;-63
2022/01/24 13:46:34;;;;;;;20.13;12.40;;;;;;;;;;10262278;28;20532;-63
2022/01/24 13:51:36;;;;;;;91.30;46.83;;;;;;;;;;10262998;28;20467;-62
2022/01/24 13:56:37;;;;;;;41.17;22.45;;;;;;;;;;10266858;28;20135;-62
2022/01/24 14:01:36;;;;;;;36.70;22.15;;;;;;;;;;10260529;28;20072;-63
2022/01/24 14:06:36;;;;;;;69.38;33.20;;;;;;;;;;10265542;28;20081;-63
2022/01/24 14:11:41;;;;;;;44.33;23.55;;;;;;;;;;10259197;28;20488;-62
2022/01/24 14:16:49;;;;;;;34.63;21.48;;;;;;;;;;10259818;28;20072;-63
2022/01/24 14:22:07;;;;;;;73.25;39.63;;;;;;;;;;10260113;28;20099;-63
2022/01/24 14:27:07;;;;;;;72.82;40.15;;;;;;;;;;10261997;28;20068;-63
2022/01/24 14:32:11;;;;;;;63.58;36.70;;;;;;;;;;10271185;28;20041;-63
2022/01/24 14:37:09;;;;;;;68.32;39.35;;;;;;;;;;10264190;28;20460;-63
2022/01/24 14:42:12;;;;;;;29.50;17.63;;;;;;;;;;10262536;28;20065;-63
2022/01/24 14:47:10;;;;;;;63.03;36.35;;;;;;;;;;10265843;28;20065;-62
2022/01/24 14:52:12;;;;;;;107.22;56.85;;;;;;;;;;10261904;28;20084;-63
2022/01/24 14:57:12;;;;;;;83.88;44.30;;;;;;;;;;10270124;28;20073;-64
2022/01/24 15:02:11;;;;;;;56.70;33.83;;;;;;;;;;10270219;28;20072;-64
2022/01/24 15:07:10;;;;;;;73.85;39.92;;;;;;;;;;10271491;28;20065;-62
2022/01/24 15:12:09;;;;;;;88.63;45.70;;;;;;;;;;10271712;28;20095;-62
2022/01/24 15:17:29;;;;;;;143.03;76.37;;;;;;;;;;10268445;28;20065;-64
2022/01/24 15:27:45;;;;;;;131.80;79.30;;;;;;;;;;10270118;28;20068;-63
2022/01/24 15:32:45;;;;;;;130.82;77.55;;;;;;;;;;10268648;28;20155;-63
2022/01/24 15:37:43;;;;;;;127.05;78.53;;;;;;;;;;10271117;28;20072;-63
2022/01/24 15:42:51;;;;;;;140.23;78.25;;;;;;;;;;10269075;28;20077;-63
2022/01/24 15:47:50;;;;;;;145.25;79.07;;;;;;;;;;10271447;28;20057;-61
2022/01/24 15:52:49;;;;;;;139.88;82.13;;;;;;;;;;10268902;28;20072;-62
2022/01/24 15:57:47;;;;;;;76.22;47.22;;;;;;;;;;10267566;28;20076;-63
2022/01/24 16:02:46;;;;;;;91.22;56.40;;;;;;;;;;10269285;28;20060;-62
2022/01/24 16:07:47;;;;;;;76.07;42.72;;;;;;;;;;10264487;28;20386;-63
2022/01/24 16:12:47;;;;;;;53.97;32.13;;;;;;;;;;10269068;28;20064;-62
2022/01/24 16:17:46;;;;;;;60.80;32.53;;;;;;;;;;10266841;28;20064;-63
2022/01/24 16:22:59;;;;;;;72.78;37.03;;;;;;;;;;10267681;28;20543;-63
2022/01/24 16:27:59;;;;;;;58.70;34.70;;;;;;;;;;10265279;28;20068;-63
2022/01/24 16:32:58;;;;;;;52.15;27.05;;;;;;;;;;10268240;28;21146;-63
2022/01/24 16:37:57;;;;;;;44.78;26.45;;;;;;;;;;10271393;28;20502;-63
2022/01/24 16:43:17;;;;;;;71.65;42.50;;;;;;;;;;10268220;28;20670;-64
2022/01/24 16:48:16;;;;;;;105.70;52.78;;;;;;;;;;10266407;28;20065;-63
2022/01/24 16:53:17;;;;;;;79.20;40.50;;;;;;;;;;10268023;28;20091;-64
2022/01/24 16:58:15;;;;;;;72.85;42.22;;;;;;;;;;10265765;28;20048;-64
2022/01/24 17:03:20;;;;;;;91.18;48.42;;;;;;;;;;10267311;28;20065;-63
2022/01/24 17:08:19;;;;;;;85.72;46.63;;;;;;;;;;10268876;28;20071;-63
2022/01/24 17:13:18;;;;;;;89.43;52.78;;;;;;;;;;10265718;28;20545;-62
2022/01/24 17:18:16;;;;;;;90.53;49.45;;;;;;;;;;10266162;28;20064;-62
2022/01/24 17:23:16;;;;;;;117.15;57.72;;;;;;;;;;10264878;28;20069;-62
2022/01/24 17:28:24;;;;;;;76.25;44.38;;;;;;;;;;10264463;28;20064;-62
2022/01/24 17:33:23;;;;;;;87.18;49.42;;;;;;;;;;10270283;28;20099;-62
2022/01/24 17:38:23;;;;;;;49.47;33.50;;;;;;;;;;10268053;28;20509;-63
2022/01/24 17:43:21;;;;;;;45.85;27.67;;;;;;;;;;10266729;28;20073;-62
2022/01/24 17:48:20;;;;;;;51.78;31.20;;;;;;;;;;10268124;28;20498;-62
2022/01/24 17:53:19;;;;;;;66.25;37.75;;;;;;;;;;10263040;28;20495;-62
2022/01/24 17:58:20;;;;;;;87.25;45.00;;;;;;;;;;10270169;28;20077;-62
2022/01/24 18:03:18;;;;;;;75.25;47.13;;;;;;;;;;10261971;28;20107;-63
2022/01/24 18:08:17;;;;;;;75.35;42.90;;;;;;;;;;10262400;28;20073;-62
2022/01/24 18:13:15;;;;;;;64.28;34.22;;;;;;;;;;10267980;28;20091;-62
2022/01/24 18:18:14;;;;;;;173.30;83.90;;;;;;;;;;10264682;28;20080;-61
2022/01/24 18:23:13;;;;;;;44.33;27.15;;;;;;;;;;10260914;28;20118;-62
2022/01/24 18:28:11;;;;;;;33.78;23.38;;;;;;;;;;10264684;28;20091;-60
2022/01/24 18:33:09;;;;;;;32.67;23.05;;;;;;;;;;10274247;28;20080;-62
2022/01/24 18:38:09;;;;;;;76.18;37.33;;;;;;;;;;10266150;28;20107;-62
2022/01/24 18:43:07;;;;;;;57.10;31.40;;;;;;;;;;10266318;28;20068;-61
2022/01/24 18:48:06;;;;;;;94.03;49.03;;;;;;;;;;10265368;28;20083;-63
2022/01/24 18:53:04;;;;;;;46.25;30.85;;;;;;;;;;10271334;28;20077;-64
2022/01/24 18:58:05;;;;;;;50.67;31.75;;;;;;;;;;10270775;28;20761;-62
2022/01/24 19:03:04;;;;;;;51.42;31.50;;;;;;;;;;10274454;28;20462;-63
2022/01/24 19:08:07;;;;;;;68.22;39.08;;;;;;;;;;10270119;28;20473;-62
2022/01/24 19:13:10;;;;;;;34.92;22.55;;;;;;;;;;10271632;28;20094;-62
2022/01/24 19:18:22;;;;;;;46.10;29.08;;;;;;;;;;10263127;28;20080;-63
2022/01/24 19:23:21;;;;;;;47.40;30.52;;;;;;;;;;10271611;28;20076;-63
2022/01/24 19:28:22;;;;;;;38.22;23.73;;;;;;;;;;10272691;28;20068;-64
2022/01/24 19:33:20;;;;;;;51.63;25.42;;;;;;;;;;10269698;28;20093;-62
2022/01/24 19:38:20;;;;;;;71.47;33.80;;;;;;;;;;10276106;28;20076;-62
2022/01/24 19:43:19;;;;;;;32.58;20.25;;;;;;;;;;10269890;28;20069;-63
2022/01/24 19:48:23;;;;;;;38.72;22.90;;;;;;;;;;10264295;28;20080;-62
2022/01/24 19:53:22;;;;;;;61.83;30.98;;;;;;;;;;10273412;28;20102;-61
2022/01/24 19:58:24;;;;;;;62.05;29.15;;;;;;;;;;10267643;28;20067;-61
2022/01/24 20:03:24;;;;;;;34.97;21.58;;;;;;;;;;10260756;28;20065;-62
2022/01/24 20:08:22;;;;;;;47.30;28.80;;;;;;;;;;10267523;28;20064;-62
2022/01/24 20:13:21;;;;;;;43.45;25.13;;;;;;;;;;10268894;28;20104;-63
2022/01/24 20:18:20;;;;;;;28.63;16.58;;;;;;;;;;10264189;28;20076;-63
2022/01/24 20:23:20;;;;;;;38.47;19.95;;;;;;;;;;10269059;28;20072;-63
2022/01/24 20:28:18;;;;;;;36.47;22.88;;;;;;;;;;10268277;28;20056;-63
2022/01/24 20:33:17;;;;;;;37.22;23.20;;;;;;;;;;10267687;28;20075;-63
2022/01/24 20:38:15;;;;;;;30.92;20.27;;;;;;;;;;10267997;28;20072;-62
2022/01/24 20:43:15;;;;;;;33.00;19.02;;;;;;;;;;10262855;28;20499;-62
2022/01/24 20:48:14;;;;;;;49.65;27.10;;;;;;;;;;10269732;28;20140;-63
2022/01/24 20:53:12;;;;;;;26.60;16.80;;;;;;;;;;10262492;28;20076;-63
2022/01/24 20:58:11;;;;;;;35.22;20.52;;;;;;;;;;10261780;28;20642;-62
2022/01/24 21:03:12;;;;;;;63.63;32.63;;;;;;;;;;10272283;28;20069;-63
2022/01/24 21:08:14;;;;;;;43.65;23.33;;;;;;;;;;10267895;28;20057;-63
2022/01/24 21:13:17;;;;;;;30.17;17.63;;;;;;;;;;10265429;28;20513;-63
2022/01/24 21:18:19;;;;;;;19.33;13.32;;;;;;;;;;10263377;28;20454;-63
2022/01/24 21:23:17;;;;;;;31.75;17.92;;;;;;;;;;10268066;28;20071;-61
2022/01/24 21:28:15;;;;;;;34.55;21.58;;;;;;;;;;10264508;28;20455;-62
2022/01/24 21:33:14;;;;;;;24.70;15.95;;;;;;;;;;10270908;28;20061;-62
2022/01/24 21:38:13;;;;;;;33.75;18.75;;;;;;;;;;10266394;28;20069;-62
2022/01/24 21:43:12;;;;;;;31.35;17.88;;;;;;;;;;10264873;28;20075;-63
2022/01/24 21:48:10;;;;;;;25.15;18.23;;;;;;;;;;10264239;28;20068;-62
2022/01/24 21:53:09;;;;;;;24.35;16.80;;;;;;;;;;10264947;28;20088;-62
2022/01/24 21:58:08;;;;;;;26.83;17.85;;;;;;;;;;10268941;28;20071;-63
2022/01/24 22:03:07;;;;;;;28.02;15.65;;;;;;;;;;10268851;28;20060;-63
2022/01/24 22:13:23;;;;;;;26.23;16.23;;;;;;;;;;10262630;28;20640;-62
2022/01/24 22:18:21;;;;;;;25.23;16.77;;;;;;;;;;10262826;28;20072;-62
2022/01/24 22:23:37;;;;;;;28.83;16.63;;;;;;;;;;10257985;28;20069;-62
2022/01/24 22:28:37;;;;;;;21.33;14.45;;;;;;;;;;10264807;28;20087;-61
2022/01/24 22:33:35;;;;;;;22.92;14.40;;;;;;;;;;10264989;28;20064;-62
2022/01/24 22:38:34;;;;;;;23.50;14.98;;;;;;;;;;10266306;28;20065;-62
2022/01/24 22:43:32;;;;;;;27.65;16.42;;;;;;;;;;10264960;28;20072;-62
2022/01/24 22:48:34;;;;;;;42.10;23.58;;;;;;;;;;10265289;28;20057;-62
2022/01/24 22:53:32;;;;;;;32.75;20.13;;;;;;;;;;10261566;28;20503;-63
2022/01/24 22:58:31;;;;;;;28.67;19.00;;;;;;;;;;10265636;28;20530;-62
2022/01/24 23:03:29;;;;;;;29.13;20.23;;;;;;;;;;10265650;28;20069;-62
2022/01/24 23:08:29;;;;;;;23.35;16.00;;;;;;;;;;10262899;28;20072;-62
2022/01/24 23:17:29;;;;;;;31.27;19.92;;;;;;;;;;10263226;28;20061;-62
2022/01/24 23:24:00;;;;;;;26.92;16.48;;;;;;;;;;10264745;28;20080;-62
2022/01/24 23:29:06;;;;;;;26.83;17.25;;;;;;;;;;10268703;28;20068;-62
2022/01/24 23:34:27;;;;;;;28.63;16.05;;;;;;;;;;10268289;28;20087;-62
2022/01/24 23:39:28;;;;;;;24.30;15.65;;;;;;;;;;10272501;28;20473;-61
2022/01/24 23:44:27;;;;;;;24.60;14.95;;;;;;;;;;10269306;28;20068;-61
2022/01/24 23:49:26;;;;;;;25.63;16.65;;;;;;;;;;10270298;28;20067;-62
2022/01/24 23:54:25;;;;;;;22.85;15.73;;;;;;;;;;10266073;28;20067;-62
